Time;durP1;ratioP1;P1;durP2;ratioP2;P2;SDS_P1;SDS_P2;PMS_P1;PMS_P2;Temp;Humidity;BMP_temperature;BMP_pressure;BME280_temperature;BME280_humidity;BME280_pressure;Samples;Min_cycle;Max_cycle;Signal;HPM_P1;HPM_P2
2022/06/14 00:03:10;;;;;;;9.98;2.20;;;15.50;92.50;;;11.72;93.65;101329.78;5048823;28;20143;-78
2022/06/14 00:05:41;;;;;;;11.10;2.22;;;15.50;92.60;;;11.69;94.17;101334.72;5049906;28;20073;-78
2022/06/14 00:08:12;;;;;;;8.35;2.90;;;15.50;92.70;;;11.67;94.58;101331.31;5041361;28;20041;-78
2022/06/14 00:10:40;;;;;;;9.88;2.67;;;15.40;92.90;;;11.67;94.46;101324.00;5051256;28;20037;-78
2022/06/14 00:13:09;;;;;;;6.95;2.28;;;15.40;92.80;;;11.68;94.72;101317.50;5050852;28;20037;-78
2022/06/14 00:15:36;;;;;;;9.10;2.40;;;15.40;93.10;;;11.67;95.68;101331.31;5050356;28;20052;-78
2022/06/14 00:18:15;;;;;;;12.02;2.70;;;15.40;93.70;;;11.64;95.86;101326.22;5049642;28;20048;-78
2022/06/14 00:20:53;;;;;;;6.40;2.17;;;15.40;93.80;;;11.58;96.83;101325.03;5045839;28;20045;-78
2022/06/14 00:23:22;;;;;;;9.32;2.67;;;15.30;94.10;;;11.58;96.35;101325.03;5051105;28;20055;-78
2022/06/14 00:25:53;;;;;;;9.20;2.72;;;15.40;94.10;;;11.50;96.54;101320.44;5050324;28;20040;-78
2022/06/14 00:28:23;;;;;;;8.02;2.92;;;15.30;94.00;;;11.46;96.84;101329.09;5050900;28;20037;-78
2022/06/14 00:30:57;;;;;;;8.20;2.40;;;15.20;94.00;;;11.43;97.16;101315.84;5047890;28;20418;-78
2022/06/14 00:33:28;;;;;;;12.38;2.38;;;15.20;94.20;;;11.38;97.97;101321.78;5050284;28;20048;-78
2022/06/14 00:36:17;;;;;;;8.18;2.00;;;15.20;94.50;;;11.35;98.28;101314.81;5049556;28;20033;-78
2022/06/14 00:38:47;;;;;;;9.50;2.70;;;15.20;94.70;;;11.32;97.94;101323.31;5030942;28;20053;-78
2022/06/14 00:41:35;;;;;;;7.55;2.60;;;15.10;94.80;;;11.31;98.21;101327.06;5047552;28;20854;-78
2022/06/14 00:44:06;;;;;;;5.55;2.20;;;15.10;95.00;;;11.24;98.51;101317.88;5040779;28;20047;-78
2022/06/14 00:46:40;;;;;;;7.70;2.40;;;15.10;94.90;;;11.22;98.46;101313.63;5050595;28;20069;-78
2022/06/14 00:49:20;;;;;;;7.85;2.35;;;15.10;95.00;;;11.20;99.11;101311.06;5031150;28;20041;-78
2022/06/14 00:52:01;;;;;;;13.73;2.85;;;15.00;95.10;;;11.21;99.35;101306.44;5043250;28;20044;-78
2022/06/14 00:54:39;;;;;;;11.70;2.70;;;15.00;95.30;;;11.18;99.64;101302.19;5033592;28;20123;-78
2022/06/14 00:57:13;;;;;;;8.70;2.60;;;15.00;95.50;;;11.17;99.80;101297.75;5048576;28;20040;-78
2022/06/14 00:59:43;;;;;;;9.75;2.70;;;15.00;95.60;;;11.12;100.00;101302.88;5050510;28;20048;-78
2022/06/14 01:02:18;;;;;;;8.95;2.63;;;15.00;95.70;;;11.09;100.00;101309.50;5050470;28;20044;-78
2022/06/14 01:04:46;;;;;;;6.75;2.20;;;14.90;95.90;;;11.06;100.00;101303.53;5050395;28;20055;-78
2022/06/14 01:07:29;;;;;;;7.70;2.47;;;14.90;95.90;;;11.04;100.00;101306.44;5045935;28;20112;-78
2022/06/14 01:10:10;;;;;;;6.78;2.40;;;14.90;96.10;;;11.03;100.00;101304.75;5043513;28;20044;-78
2022/06/14 01:12:42;;;;;;;7.13;2.47;;;14.80;96.20;;;10.99;100.00;101295.19;5062452;28;20064;-78
2022/06/14 01:15:17;;;;;;;7.55;2.40;;;14.80;96.30;;;10.95;100.00;101293.84;5039272;28;20045;-78
2022/06/14 01:17:49;;;;;;;9.43;2.55;;;14.80;96.30;;;10.89;100.00;101300.81;5044295;28;20044;-78
2022/06/14 01:20:21;;;;;;;9.38;2.50;;;14.80;96.20;;;10.86;100.00;101295.69;5041584;28;20076;-78
2022/06/14 01:23:00;;;;;;;10.45;2.55;;;14.70;96.20;;;10.85;100.00;101304.88;5050097;28;20069;-78
2022/06/14 01:25:37;;;;;;;10.65;3.00;;;14.70;96.50;;;10.82;100.00;101299.75;5049740;28;20494;-78
2022/06/14 01:28:07;;;;;;;7.40;2.60;;;14.70;96.60;;;10.80;100.00;101300.97;5049767;28;20127;-78
2022/06/14 01:30:42;;;;;;;6.30;2.30;;;14.70;96.70;;;10.82;100.00;101302.50;5048082;28;20056;-78
2022/06/14 01:33:15;;;;;;;9.05;2.58;;;14.70;97.10;;;10.80;100.00;101303.69;5040070;28;20131;-78
2022/06/14 01:35:48;;;;;;;9.52;2.38;;;14.70;97.10;;;10.74;100.00;101300.59;5053086;28;20057;-78
2022/06/14 01:38:23;;;;;;;8.68;2.47;;;14.60;97.10;;;10.74;100.00;101310.66;5048653;28;20045;-78
2022/06/14 01:41:04;;;;;;;12.98;2.85;;;14.60;97.20;;;10.69;100.00;101315.72;5049859;28;20041;-78
2022/06/14 01:43:56;;;;;;;5.90;2.67;;;14.60;97.40;;;10.68;100.00;101314.00;5045124;28;20052;-78
2022/06/14 01:46:28;;;;;;;8.90;2.65;;;14.60;97.40;;;10.67;100.00;101320.50;5048882;28;20039;-78
2022/06/14 01:52:18;;;;;;;11.43;2.72;;;14.50;97.60;;;10.59;100.00;101304.97;5048738;28;20724;-78
2022/06/14 01:54:58;;;;;;;5.32;2.00;;;14.50;97.80;;;10.58;100.00;101308.72;5041450;28;20034;-78
2022/06/14 01:57:35;;;;;;;9.30;2.17;;;14.50;97.80;;;10.56;100.00;101306.16;5039883;28;20839;-78
2022/06/14 02:00:08;;;;;;;8.90;2.30;;;14.40;97.90;;;10.54;100.00;101308.19;5038150;28;20046;-78
2022/06/14 02:04:36;;;;;;;7.10;2.45;;;14.40;97.90;;;10.51;100.00;101303.09;5040177;28;20053;-78
2022/06/14 02:05:50;;;;;;;9.50;2.78;;;14.40;97.90;;;10.49;100.00;101305.13;5047788;28;20053;-78
2022/06/14 02:08:23;;;;;;;7.97;2.90;;;14.40;98.10;;;10.47;100.00;101301.72;5041541;28;20102;-78
2022/06/14 02:11:00;;;;;;;10.02;2.53;;;14.30;98.10;;;10.45;100.00;101298.31;5049133;28;20413;-78
2022/06/14 02:13:37;;;;;;;6.72;2.28;;;14.30;98.20;;;10.48;100.00;101297.13;5044275;28;20029;-78
2022/06/14 02:16:21;;;;;;;7.47;2.30;;;14.30;98.30;;;10.44;100.00;101299.31;5046379;28;20124;-78
2022/06/14 02:19:06;;;;;;;8.07;2.58;;;14.30;98.60;;;10.45;100.00;101292.88;5046033;28;20044;-78
2022/06/14 02:21:38;;;;;;;10.73;2.97;;;14.30;98.70;;;10.38;100.00;101297.25;5047032;28;20041;-78
2022/06/14 02:24:19;;;;;;;7.18;2.65;;;14.30;98.60;;;10.35;100.00;101303.00;5047453;28;20033;-78
2022/06/14 02:26:53;;;;;;;8.18;2.90;;;14.20;98.70;;;10.39;100.00;101304.38;5049603;28;20141;-78
2022/06/14 02:29:27;;;;;;;9.15;2.40;;;14.30;98.80;;;10.36;100.00;101293.84;5048143;28;20033;-78
2022/06/14 02:32:02;;;;;;;6.03;2.50;;;14.20;98.90;;;10.32;100.00;101298.75;5048972;28;20052;-78
2022/06/14 02:34:34;;;;;;;11.07;2.97;;;14.20;99.00;;;10.34;100.00;101295.88;5048012;28;20462;-78
2022/06/14 02:37:12;;;;;;;6.88;2.90;;;14.20;99.00;;;10.32;100.00;101292.47;5048681;28;20037;-78
2022/06/14 02:39:47;;;;;;;8.73;2.75;;;14.10;98.90;;;10.27;100.00;101279.31;5047777;28;20049;-78
2022/06/14 02:42:22;;;;;;;6.90;2.33;;;14.10;99.10;;;10.26;100.00;101293.06;5048778;28;20044;-78
2022/06/14 02:44:58;;;;;;;7.47;3.05;;;14.10;99.20;;;10.29;100.00;101287.31;5049036;28;20498;-78
2022/06/14 02:47:31;;;;;;;7.93;2.47;;;14.10;99.40;;;10.27;100.00;101283.91;5049270;28;20130;-78
2022/06/14 02:50:05;;;;;;;8.70;2.60;;;14.10;99.50;;;10.27;100.00;101283.91;5049332;28;20461;-78
2022/06/14 02:52:37;;;;;;;7.78;2.72;;;14.00;99.40;;;10.23;100.00;101283.38;5063792;22;20127;-82
2022/06/14 02:55:11;;;;;;;10.13;2.88;;;14.00;99.60;;;10.19;100.00;101282.00;5039819;28;20029;-81
2022/06/14 02:57:45;;;;;;;4.53;2.33;;;14.00;99.50;;;10.17;100.00;101279.44;5047831;28;20041;-82
2022/06/14 03:00:17;;;;;;;6.68;2.50;;;14.00;99.50;;;10.14;100.00;101285.19;5041257;28;20040;-82
2022/06/14 03:02:51;;;;;;;11.55;2.58;;;14.00;99.50;;;10.13;100.00;101280.78;5049319;28;20471;-82
2022/06/14 03:05:25;;;;;;;9.35;3.00;;;14.00;99.60;;;10.12;100.00;101279.06;5040044;28;20117;-82
2022/06/14 03:08:01;;;;;;;9.50;2.78;;;14.00;99.70;;;10.10;100.00;101275.66;5025696;28;20037;-82
2022/06/14 03:10:38;;;;;;;7.80;2.67;;;14.00;99.60;;;10.10;100.00;101281.09;5026235;28;20121;-82
2022/06/14 03:13:17;;;;;;;6.68;2.80;;;13.90;99.70;;;10.08;100.00;101280.41;5028525;28;20135;-82
2022/06/14 03:15:51;;;;;;;9.65;2.83;;;13.90;99.60;;;10.06;100.00;101287.91;5037833;28;20115;-82
2022/06/14 03:18:31;;;;;;;6.15;2.42;;;13.90;99.60;;;10.04;100.00;101283.63;5022672;28;20125;-82
2022/06/14 03:21:08;;;;;;;7.72;2.78;;;13.90;99.70;;;10.04;100.00;101292.63;5013055;28;20053;-82
2022/06/14 03:23:44;;;;;;;7.50;2.45;;;13.90;99.80;;;10.05;100.00;101291.63;5030595;28;20444;-82
2022/06/14 03:26:22;;;;;;;6.90;2.60;;;13.90;99.70;;;10.05;100.00;101297.09;5036432;28;20613;-82
2022/06/14 03:28:56;;;;;;;9.80;3.20;;;13.90;99.80;;;10.06;100.00;101297.94;5037523;28;20049;-82
2022/06/14 03:31:33;;;;;;;6.35;2.70;;;13.80;99.80;;;10.08;100.00;101285.84;5013578;28;20554;-82
2022/06/14 03:34:09;;;;;;;7.95;2.78;;;13.80;99.80;;;10.10;100.00;101283.81;5023558;28;20045;-82
2022/06/14 03:36:37;;;;;;;9.52;3.10;;;13.80;99.90;;;10.05;100.00;101274.44;5038883;28;20761;-82
2022/06/14 03:39:10;;;;;;;8.32;2.50;;;13.80;99.90;;;10.10;100.00;101288.41;5024995;28;20057;-82
2022/06/14 03:41:43;;;;;;;9.30;2.80;;;13.80;99.90;;;10.08;100.00;101296.75;5034580;28;20132;-82
2022/06/14 03:44:15;;;;;;;8.35;2.97;;;13.80;99.90;;;10.09;100.00;101286.69;5049477;28;20060;-81
2022/06/14 03:46:50;;;;;;;8.75;3.00;;;13.80;99.90;;;10.14;100.00;101296.09;5031803;28;20050;-82
2022/06/14 03:49:22;;;;;;;6.53;2.50;;;13.80;99.90;;;10.18;100.00;101292.06;5015377;28;20108;-81
2022/06/14 03:52:01;;;;;;;6.85;2.60;;;13.80;99.90;;;10.27;100.00;101289.34;5039073;28;20069;-80
2022/06/14 03:54:54;;;;;;;10.45;3.05;;;13.80;99.90;;;10.27;100.00;101292.06;5012354;28;20037;-83
2022/06/14 03:57:41;;;;;;;6.63;2.70;;;13.80;99.90;;;10.30;100.00;101283.56;5028212;28;20048;-82
2022/06/14 04:00:26;;;;;;;9.98;3.05;;;13.80;99.90;;;10.34;100.00;101291.28;5027366;28;20510;-81
2022/06/14 04:03:16;;;;;;;8.02;2.95;;;13.80;99.90;;;10.40;100.00;101283.50;5030800;28;20573;-82
2022/06/14 04:06:06;;;;;;;10.40;2.80;;;13.80;99.90;;;10.40;100.00;101281.63;5038663;28;20119;-82
2022/06/14 04:08:46;;;;;;;6.28;2.83;;;13.80;99.90;;;10.45;100.00;101283.81;5038431;28;20045;-82
2022/06/14 04:11:25;;;;;;;7.80;2.70;;;13.80;99.90;;;10.53;100.00;101279.28;5025796;28;20045;-82
2022/06/14 04:14:12;;;;;;;6.15;2.42;;;13.80;99.90;;;10.54;100.00;101280.97;5021074;28;20300;-82
2022/06/14 04:16:54;;;;;;;4.82;2.33;;;13.90;99.90;;;10.53;100.00;101282.00;5041704;28;20041;-82
2022/06/14 04:19:40;;;;;;;5.47;2.45;;;13.90;99.90;;;10.62;100.00;101273.84;5033785;28;20042;-82
2022/06/14 04:22:19;;;;;;;6.63;2.47;;;13.90;99.90;;;10.72;100.00;101272.69;5026815;28;20057;-82
2022/06/14 04:24:55;;;;;;;9.90;2.67;;;13.90;99.90;;;10.72;100.00;101271.84;5030760;28;20123;-82
2022/06/14 04:27:35;;;;;;;7.32;2.70;;;13.90;99.90;;;10.78;100.00;101273.91;5034060;28;20148;-80
2022/06/14 04:30:11;;;;;;;7.45;2.80;;;14.00;99.90;;;10.88;100.00;101279.19;5029768;28;20045;-80
2022/06/14 04:32:49;;;;;;;8.73;2.80;;;14.00;99.90;;;11.06;100.00;101277.16;5024762;28;20133;-80
2022/06/14 04:35:21;;;;;;;7.32;2.90;;;14.10;99.90;;;11.20;100.00;101270.19;5011411;28;20088;-80
2022/06/14 04:37:55;;;;;;;7.22;2.50;;;14.20;99.90;;;11.45;100.00;101273.75;5036033;28;20080;-80
2022/06/14 04:40:26;;;;;;;9.75;3.22;;;14.20;99.90;;;11.65;100.00;101279.69;5023823;28;20045;-82
2022/06/14 04:42:59;;;;;;;9.45;3.03;;;14.30;99.90;;;11.82;100.00;101274.19;5030291;28;20388;-82
2022/06/14 04:45:36;;;;;;;9.15;3.13;;;14.40;99.90;;;11.91;100.00;101281.38;5030972;28;20042;-81
2022/06/14 04:48:10;;;;;;;9.48;3.03;;;14.50;99.90;;;12.02;100.00;101274.69;5018197;28;20117;-81
2022/06/14 04:50:43;;;;;;;9.48;3.47;;;14.60;99.90;;;12.15;100.00;101268.66;5031940;28;20041;-83
2022/06/14 04:53:18;;;;;;;6.70;3.13;;;14.70;99.90;;;12.26;100.00;101271.00;5030241;28;20043;-83
2022/06/14 04:55:51;;;;;;;8.40;3.03;;;14.70;99.90;;;12.31;100.00;101271.34;5020346;28;20047;-82
2022/06/14 04:58:24;;;;;;;5.35;2.90;;;14.80;99.90;;;12.38;100.00;101280.53;5030445;28;20416;-90
2022/06/14 05:00:58;;;;;;;7.20;2.80;;;14.90;99.90;;;12.42;100.00;101273.66;5027065;28;20524;-86
2022/06/14 05:03:34;;;;;;;7.53;2.83;;;15.00;99.90;;;12.58;100.00;101270.00;5029628;28;20041;-81
2022/06/14 05:06:10;;;;;;;7.10;2.78;;;15.00;99.90;;;12.75;100.00;101262.56;5018328;28;20578;-81
2022/06/14 05:08:42;;;;;;;6.55;2.70;;;15.10;99.90;;;12.94;100.00;101269.44;5033719;28;20069;-81
2022/06/14 05:11:17;;;;;;;7.10;2.85;;;15.20;99.90;;;13.04;100.00;101269.19;5048474;28;20106;-80
2022/06/14 05:13:54;;;;;;;7.97;2.90;;;15.30;99.90;;;13.17;100.00;101263.13;5050704;28;20099;-81
2022/06/14 05:16:28;;;;;;;11.57;4.05;;;15.40;99.90;;;13.33;97.28;101270.34;5028534;28;20045;-81
2022/06/14 05:19:08;;;;;;;10.68;4.05;;;15.50;99.90;;;13.51;95.84;101268.13;5037347;28;20037;-81
2022/06/14 05:21:45;;;;;;;6.38;2.97;;;15.50;99.90;;;13.60;95.51;101272.50;5029484;28;20076;-81
2022/06/14 05:24:14;;;;;;;9.65;3.50;;;15.60;99.90;;;13.88;94.36;101263.69;5029847;28;20449;-81
2022/06/14 05:27:34;;;;;;;12.77;3.85;;;15.70;99.80;;;14.00;92.63;101264.91;5030092;28;20069;-81
2022/06/14 05:30:07;;;;;;;10.07;3.92;;;15.80;99.20;;;14.03;92.74;101274.59;5032777;28;20075;-82
2022/06/14 05:32:42;;;;;;;11.15;4.18;;;15.90;99.40;;;14.22;91.88;101278.66;5029150;28;20128;-81
2022/06/14 05:35:26;;;;;;;14.68;4.80;;;15.90;99.40;;;14.36;90.53;101277.81;5030166;28;20124;-81
2022/06/14 05:38:02;;;;;;;15.32;4.50;;;16.00;98.90;;;14.49;90.67;101282.63;5027359;28;20089;-81
2022/06/14 05:40:37;;;;;;;11.00;4.45;;;16.00;99.20;;;14.57;89.87;101282.53;5010960;28;20116;-81
2022/06/14 05:43:12;;;;;;;10.90;3.88;;;16.10;98.80;;;14.80;87.97;101282.38;5036862;28;20049;-81
2022/06/14 05:45:44;;;;;;;12.40;5.13;;;16.10;98.30;;;15.15;85.83;101281.66;5030206;28;20116;-81
2022/06/14 05:48:20;;;;;;;10.68;4.25;;;16.20;98.00;;;15.37;84.62;101294.34;5030278;28;20116;-81
2022/06/14 05:50:55;;;;;;;11.63;4.50;;;16.30;97.80;;;15.61;82.99;101290.31;5031913;28;20049;-84
2022/06/14 05:53:35;;;;;;;14.05;4.80;;;16.40;97.00;;;15.91;81.90;101290.13;5033917;28;20109;-83
2022/06/14 05:56:16;;;;;;;10.70;4.30;;;16.60;96.90;;;16.20;80.44;101289.06;5042204;28;20064;-83
2022/06/14 05:58:55;;;;;;;14.05;4.43;;;16.70;96.40;;;16.61;78.30;101290.94;5050025;28;20052;-80
2022/06/14 06:01:29;;;;;;;18.92;4.85;;;16.90;96.10;;;16.65;77.72;101296.88;5049937;28;20041;-81
2022/06/14 06:04:05;;;;;;;10.68;4.10;;;16.90;95.10;;;16.39;79.00;101290.22;5029178;28;20503;-81
2022/06/14 06:06:41;;;;;;;11.93;4.15;;;17.00;95.30;;;16.38;79.10;101299.50;5035974;28;20045;-82
2022/06/14 06:09:17;;;;;;;10.52;3.63;;;17.10;95.80;;;16.14;79.54;101295.34;5031953;28;20054;-82
2022/06/14 06:11:52;;;;;;;12.65;3.97;;;17.10;94.70;;;16.16;79.23;101296.00;5030058;28;20049;-81
2022/06/14 06:14:25;;;;;;;16.33;4.20;;;17.20;94.80;;;16.18;79.11;101296.66;5032269;28;20045;-82
2022/06/14 06:16:58;;;;;;;12.48;3.67;;;17.20;94.10;;;16.10;79.58;101296.78;5034148;28;20049;-82
2022/06/14 06:19:33;;;;;;;11.82;3.63;;;17.20;94.20;;;16.29;78.63;101292.47;5028213;28;20046;-82
2022/06/14 06:22:08;;;;;;;9.68;3.25;;;17.20;94.20;;;18.92;71.64;101291.22;5027066;28;20124;-82
2022/06/14 06:24:46;;;;;;;17.02;4.05;;;17.40;94.80;;;23.23;54.59;101281.59;5027982;28;20048;-82
2022/06/14 06:27:14;;;;;;;14.75;3.78;;;17.60;93.00;;;25.59;48.98;101286.66;5039309;28;20049;-80
2022/06/14 06:29:52;;;;;;;16.02;3.63;;;17.90;93.50;;;26.55;43.56;101278.31;5039036;28;20498;-82
2022/06/14 06:32:21;;;;;;;9.43;3.58;;;18.20;92.60;;;26.01;42.32;101283.09;5041300;28;20468;-82
2022/06/14 06:34:50;;;;;;;11.38;3.75;;;18.40;90.30;;;22.86;50.64;101291.41;5049405;28;20419;-82
2022/06/14 06:37:26;;;;;;;10.73;3.60;;;18.60;91.20;;;21.07;55.89;101291.66;5045966;28;20041;-82
2022/06/14 06:40:00;;;;;;;8.15;3.53;;;18.80;90.80;;;19.68;60.35;101294.91;5033724;28;20052;-80
2022/06/14 06:42:39;;;;;;;11.57;4.07;;;18.80;90.20;;;19.09;62.22;101289.63;5041532;28;20077;-80
2022/06/14 06:45:14;;;;;;;12.85;3.50;;;18.80;89.60;;;18.88;63.46;101301.00;5049745;28;20091;-80
2022/06/14 06:47:47;;;;;;;11.25;3.83;;;18.90;89.20;;;18.66;67.30;101298.56;5051949;28;20395;-80
2022/06/14 06:50:23;;;;;;;10.57;3.40;;;18.90;90.00;;;18.32;66.53;101297.81;5047176;28;20041;-80
2022/06/14 06:53:01;;;;;;;12.57;3.30;;;18.90;89.50;;;18.30;66.58;101299.13;5038231;28;20517;-80
2022/06/14 06:55:42;;;;;;;12.23;3.65;;;18.90;89.20;;;18.41;64.79;101300.34;5031146;28;20040;-80
2022/06/14 06:58:20;;;;;;;11.60;3.50;;;18.90;88.50;;;18.31;65.28;101312.66;5053215;28;20044;-81
2022/06/14 07:00:50;;;;;;;15.07;3.70;;;18.90;87.50;;;18.19;66.24;101308.06;5053202;28;20037;-80
2022/06/14 07:03:26;;;;;;;9.13;3.13;;;18.90;87.70;;;18.19;67.15;101313.56;5053194;28;20128;-81
2022/06/14 07:05:58;;;;;;;13.48;3.55;;;18.90;88.60;;;18.32;67.61;101311.59;5045404;28;20542;-80
2022/06/14 07:08:39;;;;;;;14.90;4.00;;;19.00;88.60;;;18.20;67.52;101310.59;5037626;28;20055;-80
2022/06/14 07:11:12;;;;;;;14.00;3.42;;;18.90;89.10;;;18.13;69.40;101304.25;5052989;28;20094;-80
2022/06/14 07:13:49;;;;;;;16.27;4.10;;;18.90;89.80;;;18.26;67.45;101309.72;5035991;28;20045;-80
2022/06/14 07:16:24;;;;;;;9.27;3.38;;;19.10;88.70;;;18.39;68.52;101300.56;5031859;28;20052;-80
2022/06/14 07:18:57;;;;;;;10.45;3.40;;;19.00;89.30;;;18.40;68.21;101299.50;5041033;28;20046;-81
2022/06/14 07:21:32;;;;;;;11.43;3.92;;;19.00;88.70;;;18.52;67.59;101307.94;5011676;28;20046;-81
2022/06/14 07:24:11;;;;;;;14.05;3.90;;;19.10;89.10;;;18.58;65.57;101296.03;5015189;28;20045;-82
2022/06/14 07:26:44;;;;;;;15.55;4.45;;;19.10;87.80;;;18.74;67.35;101301.03;5034180;28;20499;-82
2022/06/14 07:29:16;;;;;;;11.10;4.10;;;19.10;88.30;;;18.54;65.80;101298.41;5038643;28;20046;-82
2022/06/14 07:31:50;;;;;;;14.73;4.10;;;19.20;87.50;;;18.24;66.42;101300.81;5032738;28;20095;-82
2022/06/14 07:34:18;;;;;;;12.55;3.70;;;19.20;87.00;;;18.36;65.35;101299.09;5032742;28;20076;-82
2022/06/14 07:36:59;;;;;;;13.70;3.63;;;19.10;86.60;;;18.50;66.05;101302.63;5032464;28;20128;-83
2022/06/14 07:39:35;;;;;;;14.50;4.07;;;19.20;86.90;;;18.67;63.87;101299.38;5032652;28;20044;-83
2022/06/14 07:42:09;;;;;;;15.43;3.95;;;19.30;86.60;;;18.34;65.54;101306.72;5032301;28;20049;-83
2022/06/14 07:44:54;;;;;;;15.02;4.20;;;19.20;86.20;;;18.04;65.84;101302.78;5039089;28;20046;-83
2022/06/14 07:47:31;;;;;;;13.23;4.70;;;19.30;85.70;;;17.74;65.74;101305.94;5032435;28;20042;-82
2022/06/14 07:50:07;;;;;;;12.75;4.78;;;19.10;85.10;;;17.63;69.75;101303.84;5031685;28;20052;-83
2022/06/14 07:52:42;;;;;;;11.38;4.68;;;19.10;87.00;;;17.47;69.71;101311.44;5032324;28;20077;-81
2022/06/14 07:55:17;;;;;;;16.98;5.05;;;19.10;87.50;;;17.35;69.77;101302.16;5032060;28;20142;-82
2022/06/14 07:57:48;;;;;;;13.68;4.93;;;19.00;87.40;;;17.16;68.72;101303.81;5032400;28;20033;-81
2022/06/14 08:03:13;;;;;;;15.85;4.82;;;18.90;86.40;;;16.96;72.27;101304.63;5035013;28;20132;-83
2022/06/14 08:05:46;;;;;;;16.15;5.30;;;18.80;87.60;;;16.81;71.00;101302.00;5039896;28;20390;-81
2022/06/14 08:08:19;;;;;;;16.35;5.05;;;18.80;87.00;;;16.83;72.56;101310.09;5049002;28;20037;-81
2022/06/14 08:10:53;;;;;;;13.43;5.03;;;18.70;88.00;;;16.69;70.56;101298.13;5032038;28;20096;-81
2022/06/14 08:13:26;;;;;;;12.80;5.03;;;18.70;86.40;;;16.71;71.78;101300.69;5032255;28;20688;-81
2022/06/14 08:15:58;;;;;;;17.88;5.32;;;18.70;87.10;;;16.77;71.49;101295.22;5028975;28;20042;-81
2022/06/14 08:18:31;;;;;;;17.00;4.75;;;18.60;87.30;;;16.87;73.22;101288.50;5031936;28;20140;-81
2022/06/14 08:21:04;;;;;;;15.55;4.80;;;18.70;88.00;;;16.92;70.49;101285.97;5031835;28;20045;-81
2022/06/14 08:23:38;;;;;;;13.88;4.65;;;18.70;87.30;;;17.16;70.40;101282.66;5046638;28;20045;-81
2022/06/14 08:26:15;;;;;;;14.32;4.70;;;18.70;87.40;;;17.62;71.34;101280.13;5030941;28;20041;-81
2022/06/14 08:28:47;;;;;;;13.15;4.93;;;18.70;89.50;;;18.05;70.78;101272.25;5028576;28;20037;-81
2022/06/14 08:31:22;;;;;;;11.82;5.00;;;18.80;89.90;;;18.34;69.36;101268.13;5031266;28;20106;-81
2022/06/14 08:33:55;;;;;;;16.85;4.75;;;18.90;89.20;;;18.52;67.84;101269.34;5031430;28;20049;-81
2022/06/14 08:36:34;;;;;;;15.55;5.13;;;18.90;89.10;;;18.65;63.73;101260.16;5029928;28;20140;-81
2022/06/14 08:39:09;;;;;;;12.05;4.22;;;19.00;87.40;;;18.71;63.24;101268.38;5030835;28;20491;-81
2022/06/14 08:41:58;;;;;;;11.05;4.15;;;19.10;86.40;;;18.78;62.41;101262.00;5031515;28;20045;-81
2022/06/14 08:44:33;;;;;;;13.73;4.10;;;19.20;85.60;;;18.69;63.35;101264.16;5031113;28;20116;-81
2022/06/14 08:47:12;;;;;;;15.32;5.68;;;19.20;84.80;;;18.54;64.07;101272.72;5030184;28;20140;-81
2022/06/14 08:49:51;;;;;;;13.35;4.72;;;19.30;85.90;;;18.35;66.64;101267.09;5031255;28;20124;-81
2022/06/14 08:53:01;;;;;;;16.65;5.28;;;19.30;86.20;;;18.08;64.83;101270.97;5047117;23;20046;-83
2022/06/14 08:56:12;;;;;;;12.93;4.35;;;19.30;85.30;;;17.90;68.10;101260.66;5013489;28;20472;-83
2022/06/14 08:59:31;;;;;;;12.02;5.20;;;19.20;86.30;;;17.83;66.88;101274.38;5004768;28;20061;-83
2022/06/14 09:02:33;;;;;;;12.95;5.38;;;19.20;85.70;;;17.75;63.29;101272.69;5029753;28;20049;-83
2022/06/14 09:05:48;;;;;;;15.88;5.53;;;19.20;83.50;;;17.74;65.35;101272.91;5030626;28;20132;-83
2022/06/14 09:09:07;;;;;;;12.77;5.15;;;19.20;83.30;;;17.68;66.65;101276.53;5030928;28;20041;-83
2022/06/14 09:12:37;;;;;;;16.45;5.43;;;19.10;84.40;;;17.81;64.80;101267.41;4971794;28;20084;-83
2022/06/14 09:15:46;;;;;;;17.85;6.00;;;19.10;84.70;;;17.65;64.08;101263.16;4983181;28;20049;-83
2022/06/14 09:18:43;;;;;;;11.90;5.82;;;19.10;83.00;;;17.75;66.42;101272.69;5027133;28;20057;-83
2022/06/14 09:21:16;;;;;;;17.55;5.47;;;19.10;84.80;;;17.82;63.22;101258.94;5030737;28;20052;-83
2022/06/14 09:24:06;;;;;;;17.83;5.88;;;19.10;82.50;;;18.03;63.14;101262.50;5030626;28;20041;-83
2022/06/14 09:26:57;;;;;;;18.60;6.07;;;19.20;82.50;;;18.03;60.34;101262.50;5030100;28;20054;-83
2022/06/14 09:30:08;;;;;;;15.68;5.70;;;19.20;80.50;;;18.16;63.69;101256.97;5030017;28;20172;-83
2022/06/14 09:33:13;;;;;;;16.53;5.43;;;19.20;82.70;;;18.35;61.68;101258.81;5015146;28;20046;-83
2022/06/14 09:36:23;;;;;;;13.68;5.60;;;19.30;82.50;;;18.52;63.45;101258.31;5030052;28;20334;-83
2022/06/14 09:39:44;;;;;;;17.15;5.85;;;19.40;84.40;;;18.31;58.52;101257.53;5030466;28;20111;-83
2022/06/14 09:43:02;;;;;;;21.08;6.00;;;19.30;80.40;;;18.31;59.23;101263.06;5030613;28;20052;-83
2022/06/14 09:46:07;;;;;;;15.63;5.35;;;19.40;79.80;;;18.56;61.07;101259.56;5030045;28;20124;-83
2022/06/14 09:49:38;;;;;;;13.65;5.00;;;19.40;82.40;;;18.59;59.51;101253.63;5021483;28;20164;-83
2022/06/14 09:52:55;;;;;;;14.60;4.97;;;19.40;80.10;;;18.79;61.02;101258.16;4973799;28;20072;-83
2022/06/14 09:56:16;;;;;;;12.05;5.55;;;19.50;82.00;;;18.85;62.10;101260.06;4956341;28;20145;-83
2022/06/14 09:59:15;;;;;;;15.18;5.63;;;19.60;82.90;;;19.09;62.17;101258.44;4998038;28;20058;-83
2022/06/14 10:01:54;;;;;;;11.95;4.78;;;19.60;83.90;;;19.20;61.89;101251.38;5029937;28;20479;-83
2022/06/14 10:04:52;;;;;;;13.52;4.85;;;19.70;84.20;;;19.17;61.43;101249.03;5029950;28;20037;-83
2022/06/14 10:07:53;;;;;;;12.15;4.88;;;19.70;83.40;;;18.89;61.30;101253.06;5029751;28;20124;-83
2022/06/14 10:10:50;;;;;;;11.70;4.90;;;19.70;82.60;;;18.71;61.98;101257.34;5030053;28;20044;-83
2022/06/14 10:14:09;;;;;;;13.40;4.90;;;19.70;82.80;;;18.72;64.44;101253.53;5031771;28;20151;-83
2022/06/14 10:17:24;;;;;;;12.55;5.03;;;19.70;83.40;;;19.01;63.56;101253.19;5033794;28;20133;-83
2022/06/14 10:20:21;;;;;;;11.27;4.43;;;19.70;86.00;;;18.85;59.89;101249.03;5015409;28;20058;-83
2022/06/14 10:23:06;;;;;;;11.45;4.57;;;19.80;81.40;;;18.71;57.13;101246.31;5006058;28;20049;-83
2022/06/14 10:28:11;;;;;;;13.15;5.55;;;19.70;78.50;;;18.54;56.76;101250.66;5014786;28;20084;-83
2022/06/14 10:28:50;;;;;;;11.85;4.53;;;19.70;77.30;;;18.75;57.83;101239.31;5033688;28;20037;-83
2022/06/14 10:31:37;;;;;;;14.20;5.45;;;19.70;78.50;;;18.82;56.24;101238.47;5033955;28;20041;-83
2022/06/14 10:34:13;;;;;;;12.95;5.30;;;19.80;77.40;;;18.80;55.50;101226.78;5028989;28;20042;-82
2022/06/14 10:36:59;;;;;;;15.52;5.20;;;19.70;76.50;;;18.63;54.98;101224.53;5033283;28;20049;-84
2022/06/14 10:40:23;;;;;;;13.65;4.97;;;19.70;75.40;;;18.70;56.86;101228.09;5033273;28;20116;-84
2022/06/14 10:43:04;;;;;;;15.07;5.22;;;19.70;77.90;;;18.75;58.11;101219.16;5010882;28;20546;-84
2022/06/14 10:45:38;;;;;;;15.25;5.60;;;19.70;78.30;;;18.77;56.31;101222.53;5013583;28;20462;-85
2022/06/14 10:48:49;;;;;;;15.32;5.47;;;19.80;77.50;;;18.78;58.52;101215.97;5010631;28;20136;-84
2022/06/14 10:51:51;;;;;;;16.58;5.35;;;19.80;78.50;;;19.00;61.21;101210.97;5020905;28;20125;-85
2022/06/14 10:54:43;;;;;;;16.83;5.20;;;19.90;81.70;;;19.01;57.68;101206.31;5019293;28;20046;-84
2022/06/14 10:57:49;;;;;;;15.32;5.35;;;20.00;79.40;;;18.97;58.38;101205.91;5003493;28;20053;-84
2022/06/14 11:00:31;;;;;;;13.88;5.30;;;20.00;78.80;;;18.98;60.08;101199.28;5033059;28;20034;-84
2022/06/14 11:03:19;;;;;;;19.33;5.40;;;20.00;81.20;;;18.88;59.78;101196.19;5033057;28;20038;-85
2022/06/14 11:06:17;;;;;;;17.98;5.50;;;20.00;80.00;;;18.87;58.22;101189.00;5032880;28;20037;-85
2022/06/14 11:08:59;;;;;;;14.25;5.65;;;20.00;78.50;;;18.85;57.59;101191.13;5016841;28;20147;-85